Antrim, New Hampshire
Current Conditions -  °F | °C
As of 4:52 PM on Friday 24 Oct 2014 (Local Time) from KAFN Reporting Station
Overcast Overcast  
Wind Chill: 44°   Ceiling: 1500
Heat Index: 46°   Visibility: 10mi
Dew Point: 40°   Wind: 5mph
Humidity: 79%   Direction: NA
Pressure: 29.73"   Gusts: NA
Location:  43.03°N, 71.95°W
Report Text: KAFN 242052Z AUTO VRB04KT 10SM OVC015 08/04 A2973 RMK AO2 SLP076 T00780044 53002
Loading
Personal Weather Stations






























Interactive Weather Map New forecast layout! Learn more

10-Day Weather Forecast

Advertisements
Track Severe Weather on mobile